Main page
METAR-TAF:

METAR-TAF

Airports :

Zaragoza Airport

Zaragoza, Spain

latitude: 41-40N, longitude: 001-01W, elevation: 263 m

Current weather observation

The report was made 27 minutes ago, at 05:30 UTC
Wind 4 kt from the East
Temperature 20°C
Humidity 68%
Pressure 1018 hPa
Visibility 10 km or more
no clouds below 1500 m and no cumulonimbus

METAR: LEZG 250530Z 10004KT CAVOK 20/14 Q1018

Time: 07:57 (05:57 UTC)

Forecast

The report was made 57 minutes ago, at 05:00 UTC
Forecast valid from 25 at 06 UTC to 26 at 06 UTC
Wind 8 kt from the East
Visibility 10 km or more
Few clouds at a height of 5000 ft
Temporary
from 25 at 16 UTC to 25 at 20 UTC
Wind 14 kt from the East/Southeast with gusts up to 24 kt

TAF: LEZG 250500Z 2506/2606 10008KT 9999 FEW050 TX35/2514Z TN18/2506Z TEMPO 2516/2520 11014G24KT

Weather observations and forecasts of more than 4000 airports (METAR and TAF reports).

The available stations are represented by yellow and red dots on the map.

Hover mouse over dot to see the name of the station.

Then click to see weather observations and forecasts.

To change the map : click on the green buttons with a black cross to zoom in, on the green button with a dash to zoom out, or on the green arrows for adjacent maps.


METAR-TAF: